Time;durP1;ratioP1;P1;durP2;ratioP2;P2;SDS_P1;SDS_P2;PMS_P1;PMS_P2;Temp;Humidity;BMP_temperature;BMP_pressure;BME280_temperature;BME280_humidity;BME280_pressure;Samples;Min_cycle;Max_cycle;Signal;HPM_P1;HPM_P2
2022/01/10 00:01:09;;;;;;;2.90;2.00;;;2.40;96.90;1.60;97607.00;;;;5115807;28;20201;-80
2022/01/10 00:03:36;;;;;;;0.90;0.90;;;2.40;97.00;1.60;97603.00;;;;5115748;28;20680;-80
2022/01/10 00:06:02;;;;;;;0.90;0.90;;;2.50;96.90;1.50;97613.00;;;;5115772;28;20236;-80
2022/01/10 00:08:30;;;;;;;1.23;1.13;;;2.40;96.60;1.50;97610.00;;;;5115626;28;20288;-80
2022/01/10 00:10:58;;;;;;;3.50;1.53;;;2.40;96.70;1.60;97609.00;;;;5097646;28;20221;-80
2022/01/10 00:13:28;;;;;;;1.00;1.00;;;2.40;96.60;1.50;97608.00;;;;5115506;28;20295;-80
2022/01/10 00:15:55;;;;;;;1.47;1.37;;;2.40;96.50;1.50;97624.00;;;;5115362;28;20272;-79
2022/01/10 00:18:21;;;;;;;0.60;0.60;;;2.40;96.30;1.50;97624.00;;;;5097662;28;20306;-78
2022/01/10 00:20:48;;;;;;;1.03;1.00;;;2.40;96.50;1.50;97620.00;;;;5097644;28;20208;-80
2022/01/10 00:23:15;;;;;;;1.10;1.10;;;2.40;96.30;1.50;97630.00;;;;5115445;28;20192;-81
2022/01/10 00:25:41;;;;;;;1.27;1.10;;;2.40;96.30;1.50;97622.00;;;;5097580;28;20209;-80
2022/01/10 00:28:08;;;;;;;1.27;1.20;;;2.40;96.60;1.40;97622.00;;;;5097316;28;20284;-80
2022/01/10 00:30:35;;;;;;;0.80;0.80;;;2.40;96.20;1.40;97628.00;;;;5115206;28;20220;-80
2022/01/10 00:33:02;;;;;;;1.33;1.20;;;2.30;96.70;1.40;97632.00;;;;5115018;28;20258;-80
2022/01/10 00:35:28;;;;;;;1.07;1.07;;;2.30;96.80;1.50;97629.00;;;;5115200;28;20203;-80
2022/01/10 00:37:55;;;;;;;0.70;0.70;;;2.30;96.80;1.40;97627.00;;;;5115089;28;20279;-78
2022/01/10 00:40:24;;;;;;;1.17;1.07;;;2.30;96.70;1.50;97626.00;;;;5115237;28;20268;-80
2022/01/10 00:42:55;;;;;;;0.80;0.80;;;2.40;96.90;1.50;97641.00;;;;5115098;28;20205;-80
2022/01/10 00:45:26;;;;;;;2.10;1.97;;;2.40;96.80;1.50;97645.00;;;;5097090;28;20208;-80
2022/01/10 00:47:54;;;;;;;1.50;1.40;;;2.40;96.80;1.50;97654.00;;;;5115035;28;20217;-79
2022/01/10 00:50:24;;;;;;;1.00;1.00;;;2.40;97.00;1.50;97650.00;;;;5114888;28;20265;-80
2022/01/10 00:52:51;;;;;;;0.97;0.97;;;2.40;96.80;1.50;97637.00;;;;5114961;28;20284;-80
2022/01/10 00:55:17;;;;;;;3.20;1.30;;;2.40;96.80;1.50;97659.00;;;;5114834;28;20229;-80
2022/01/10 00:57:44;;;;;;;1.10;1.10;;;2.40;96.90;1.50;97656.00;;;;5114926;28;20204;-79
2022/01/10 01:00:15;;;;;;;1.17;1.17;;;2.40;96.80;1.50;97653.00;;;;5114920;28;20207;-76
2022/01/10 01:02:41;;;;;;;0.87;0.87;;;2.40;96.80;1.40;97664.00;;;;5096859;28;20241;-79
2022/01/10 01:05:12;;;;;;;0.70;0.70;;;2.30;96.70;1.40;97657.00;;;;5114841;28;20194;-81
2022/01/10 01:07:40;;;;;;;0.90;0.90;;;2.30;96.90;1.40;97667.00;;;;5114099;28;20318;-79
2022/01/10 01:10:32;;;;;;;0.90;0.90;;;2.30;97.00;1.50;97672.00;;;;5114686;28;20275;-80
2022/01/10 01:13:03;;;;;;;1.00;1.00;;;2.40;97.10;1.50;97677.00;;;;5114562;28;20252;-80
2022/01/10 01:15:31;;;;;;;1.03;1.00;;;2.40;97.10;1.60;97678.00;;;;5114599;28;20197;-80
2022/01/10 01:18:11;;;;;;;1.30;1.30;;;2.50;97.40;1.50;97690.00;;;;5114466;28;20239;-80
2022/01/10 01:24:00;;;;;;;0.70;0.70;;;2.40;96.90;1.50;97690.00;;;;5114648;28;20204;-80
2022/01/10 01:26:18;;;;;;;0.83;0.83;;;2.50;97.40;1.50;97698.00;;;;5128004;28;20204;-81
2022/01/10 01:28:46;;;;;;;0.80;0.80;;;2.50;97.20;1.50;97708.00;;;;5118555;28;20244;-80
2022/01/10 01:31:15;;;;;;;0.90;0.90;;;2.40;97.10;1.50;97704.00;;;;5115622;28;20213;-80
2022/01/10 01:33:42;;;;;;;1.43;1.33;;;2.40;97.20;1.50;97711.00;;;;5096581;28;20319;-80
2022/01/10 01:36:09;;;;;;;0.90;0.90;;;2.40;97.20;1.50;97718.00;;;;5117416;28;20206;-81
2022/01/10 01:38:39;;;;;;;1.17;1.13;;;2.40;97.30;1.50;97717.00;;;;5126867;28;20197;-81
2022/01/10 01:41:35;;;;;;;0.90;0.90;;;2.40;97.40;1.50;97726.00;;;;5124665;28;20240;-80
2022/01/10 01:44:03;;;;;;;1.03;1.03;;;2.40;97.30;1.50;97723.00;;;;5115360;28;20196;-78
2022/01/10 01:46:34;;;;;;;7.40;1.67;;;2.40;97.20;1.50;97727.00;;;;5114316;28;20225;-79
2022/01/10 01:49:02;;;;;;;1.33;1.23;;;2.40;97.20;1.60;97727.00;;;;5114692;28;20200;-81
2022/01/10 01:51:28;;;;;;;1.10;1.10;;;2.50;97.50;1.60;97724.00;;;;5096269;28;20233;-79
2022/01/10 01:53:56;;;;;;;1.03;1.03;;;2.50;97.60;1.50;97725.00;;;;5096178;28;20686;-80
2022/01/10 01:56:23;;;;;;;2.07;1.97;;;2.50;97.10;1.50;97729.00;;;;5114165;28;20618;-80
2022/01/10 01:58:52;;;;;;;1.80;1.70;;;2.40;96.80;1.50;97736.00;;;;5113949;28;20212;-80
2022/01/10 02:01:20;;;;;;;1.30;1.30;;;2.40;97.30;1.50;97732.00;;;;5095930;28;20696;-80
2022/01/10 02:03:48;;;;;;;0.87;0.87;;;2.40;97.20;1.50;97738.00;;;;5114180;28;20193;-81
2022/01/10 02:06:18;;;;;;;1.00;1.00;;;2.40;97.20;1.50;97734.00;;;;5113963;28;20243;-79
2022/01/10 02:08:45;;;;;;;0.80;0.80;;;2.40;97.30;1.60;97749.00;;;;5113684;28;20229;-79
2022/01/10 02:11:14;;;;;;;0.70;0.70;;;2.40;97.60;1.60;97712.00;;;;5113864;28;20224;-81
2022/01/10 02:13:43;;;;;;;1.10;1.10;;;2.50;97.50;1.60;97755.00;;;;5095814;28;20236;-80
2022/01/10 02:16:15;;;;;;;0.93;0.93;;;2.50;97.20;1.50;97754.00;;;;5113860;28;20501;-80
2022/01/10 02:18:42;;;;;;;1.17;1.17;;;2.50;97.00;1.60;97759.00;;;;5113878;28;20253;-80
2022/01/10 02:21:14;;;;;;;1.43;1.33;;;2.50;97.00;1.60;97736.00;;;;5117351;28;20305;-80
2022/01/10 02:23:42;;;;;;;0.77;0.77;;;2.50;96.90;1.60;97755.00;;;;5117164;28;20200;-81
2022/01/10 02:26:09;;;;;;;0.70;0.70;;;2.40;96.90;1.50;97762.00;;;;5117156;28;20197;-81
2022/01/10 02:28:36;;;;;;;0.87;0.87;;;2.50;97.10;1.60;97761.00;;;;5117380;28;20199;-80
2022/01/10 02:31:06;;;;;;;0.80;0.80;;;2.50;97.00;1.50;97741.00;;;;5117186;28;20235;-81
2022/01/10 02:33:33;;;;;;;0.93;0.93;;;2.50;97.00;1.60;97762.00;;;;5117115;28;20230;-81
2022/01/10 02:36:13;;;;;;;0.80;0.80;;;2.50;97.20;1.60;97773.00;;;;5116974;28;20226;-81
2022/01/10 02:38:51;;;;;;;1.63;1.53;;;2.50;97.30;1.60;97774.00;;;;5099223;28;20667;-81
2022/01/10 02:41:24;;;;;;;0.70;0.70;;;2.50;97.20;1.60;97775.00;;;;5116940;28;20208;-80
2022/01/10 02:43:55;;;;;;;1.37;1.37;;;2.50;97.20;1.60;97783.00;;;;5117026;28;20199;-80
2022/01/10 02:46:22;;;;;;;1.00;1.00;;;2.50;97.10;1.60;97782.00;;;;5116965;28;20204;-80
2022/01/10 02:48:49;;;;;;;1.87;1.70;;;2.50;97.10;1.50;97773.00;;;;5099057;28;20521;-80
2022/01/10 02:51:16;;;;;;;1.23;1.23;;;2.40;96.90;1.40;97793.00;;;;5116890;28;20610;-81
2022/01/10 02:53:45;;;;;;;0.90;0.90;;;2.40;97.00;1.50;97799.00;;;;5116643;28;20252;-81
2022/01/10 02:56:12;;;;;;;1.23;1.23;;;2.40;97.40;1.60;97806.00;;;;5098920;28;20555;-80
2022/01/10 02:58:39;;;;;;;0.70;0.70;;;2.50;97.60;1.60;97780.00;;;;5116724;28;20268;-81
2022/01/10 03:01:08;;;;;;;1.13;1.13;;;2.60;97.50;1.70;97816.00;;;;5116834;28;20279;-80
2022/01/10 03:03:34;;;;;;;0.87;0.87;;;2.50;97.20;1.60;97808.00;;;;5098805;28;20296;-80
2022/01/10 03:06:02;;;;;;;1.93;1.83;;;2.50;96.90;1.60;97813.00;;;;5098802;28;20327;-80
2022/01/10 03:08:30;;;;;;;0.90;0.90;;;2.50;97.20;1.60;97812.00;;;;5116660;28;20292;-80
2022/01/10 03:10:57;;;;;;;1.23;1.20;;;2.50;97.10;1.60;97831.00;;;;5116619;28;20197;-81
2022/01/10 03:13:24;;;;;;;0.63;0.63;;;2.50;97.20;1.70;97828.00;;;;5116604;28;20675;-80
2022/01/10 03:15:51;;;;;;;1.27;1.27;;;2.60;97.20;1.80;97829.00;;;;5116412;28;20292;-80
2022/01/10 03:18:20;;;;;;;1.33;1.33;;;2.60;97.10;1.70;97825.00;;;;5116492;28;20207;-80
2022/01/10 03:20:47;;;;;;;0.90;0.90;;;2.60;96.70;1.60;97838.00;;;;5116441;28;20225;-80
2022/01/10 03:23:13;;;;;;;1.80;1.70;;;2.60;96.90;1.70;97844.00;;;;5116458;28;20220;-80
2022/01/10 03:25:40;;;;;;;1.13;1.13;;;2.60;97.00;1.70;97847.00;;;;5116298;28;20632;-80
2022/01/10 03:28:07;;;;;;;1.10;1.07;;;2.60;97.00;1.70;97858.00;;;;5098335;28;20636;-79
2022/01/10 03:30:35;;;;;;;1.40;1.30;;;2.60;96.90;1.60;97857.00;;;;5115823;28;20236;-80
2022/01/10 03:33:03;;;;;;;1.00;1.00;;;2.60;97.00;1.70;97855.00;;;;5116129;28;20323;-80
2022/01/10 03:35:30;;;;;;;0.87;0.87;;;2.60;97.20;1.80;97862.00;;;;5116175;28;20258;-80
2022/01/10 03:37:58;;;;;;;1.10;1.10;;;2.60;97.10;1.80;97865.00;;;;5098017;28;20233;-80
2022/01/10 03:40:25;;;;;;;1.17;1.07;;;2.60;97.10;1.80;97859.00;;;;5116133;28;20206;-80
2022/01/10 03:42:53;;;;;;;1.43;1.33;;;2.70;97.10;1.80;97858.00;;;;5115841;28;20563;-79
2022/01/10 03:45:19;;;;;;;1.00;1.00;;;2.70;96.90;1.80;97865.00;;;;5116050;28;20217;-80
2022/01/10 03:47:46;;;;;;;1.27;1.27;;;2.70;97.20;1.80;97871.00;;;;5116057;28;20262;-81
2022/01/10 03:50:13;;;;;;;0.90;0.90;;;2.70;97.00;1.80;97874.00;;;;5116007;28;20294;-81
2022/01/10 03:52:41;;;;;;;0.87;0.87;;;2.70;97.30;1.80;97871.00;;;;5115976;28;20518;-80
2022/01/10 03:55:09;;;;;;;1.10;1.00;;;2.70;97.20;1.90;97892.00;;;;5116264;28;20227;-79
2022/01/10 03:57:35;;;;;;;0.80;0.80;;;2.70;97.10;1.80;97876.00;;;;5116080;28;20203;-80
2022/01/10 04:00:08;;;;;;;0.70;0.70;;;2.70;96.70;1.80;97899.00;;;;5115869;28;20379;-80
2022/01/10 04:02:36;;;;;;;0.70;0.70;;;2.70;96.70;1.80;97898.00;;;;5115892;28;20205;-80
2022/01/10 04:05:04;;;;;;;1.23;1.23;;;2.70;96.80;1.80;97863.00;;;;5097790;28;20198;-80
2022/01/10 04:07:33;;;;;;;0.77;0.77;;;2.70;96.70;1.80;97903.00;;;;5115824;28;20201;-80
2022/01/10 04:10:02;;;;;;;1.10;1.00;;;2.60;96.80;1.70;97899.00;;;;5115786;28;20213;-81
2022/01/10 04:12:29;;;;;;;0.83;0.83;;;2.60;96.80;1.80;97902.00;;;;5115586;28;20236;-80
2022/01/10 04:14:57;;;;;;;1.07;1.07;;;2.70;97.10;1.80;97887.00;;;;5115580;28;20197;-80
2022/01/10 04:17:26;;;;;;;1.10;0.97;;;2.60;97.20;1.80;97904.00;;;;5115608;28;20233;-80
2022/01/10 04:19:53;;;;;;;1.17;1.17;;;2.70;97.30;1.80;97904.00;;;;5115830;28;20353;-80
2022/01/10 04:22:21;;;;;;;0.80;0.80;;;2.70;97.20;1.80;97908.00;;;;5115517;28;20197;-80
2022/01/10 04:24:47;;;;;;;1.13;1.13;;;2.70;97.10;1.70;97902.00;;;;5115381;28;20264;-80
2022/01/10 04:27:14;;;;;;;1.03;1.03;;;2.70;97.10;1.60;97918.00;;;;5115322;28;20217;-80
2022/01/10 04:29:40;;;;;;;1.07;1.07;;;2.60;96.70;1.70;97914.00;;;;5115316;28;20197;-80
2022/01/10 04:32:08;;;;;;;0.73;0.73;;;2.60;97.20;1.70;97905.00;;;;5115221;28;20620;-80
2022/01/10 04:34:37;;;;;;;1.00;1.00;;;2.60;97.00;1.60;97926.00;;;;5115170;28;20237;-80
2022/01/10 04:37:04;;;;;;;0.93;0.93;;;2.60;97.10;1.80;97913.00;;;;5115304;28;20204;-78
2022/01/10 04:39:33;;;;;;;1.00;1.00;;;2.60;97.40;1.80;97928.00;;;;5115125;28;20281;-80
2022/01/10 04:42:00;;;;;;;1.13;1.13;;;2.60;97.30;1.90;97936.00;;;;5114204;28;20280;-80
2022/01/10 04:44:28;;;;;;;0.97;0.97;;;2.70;97.20;1.80;97940.00;;;;5114966;28;20295;-79
2022/01/10 04:46:55;;;;;;;1.20;1.10;;;2.70;97.10;1.90;97938.00;;;;5115015;28;20302;-79
2022/01/10 04:49:24;;;;;;;0.70;0.70;;;2.80;97.80;1.80;97950.00;;;;5097214;28;20247;-80
2022/01/10 04:51:51;;;;;;;2.93;1.37;;;2.70;96.70;1.80;97958.00;;;;5115007;28;20292;-80
2022/01/10 04:54:18;;;;;;;1.97;1.87;;;2.70;97.00;1.80;97962.00;;;;5114854;28;20230;-80
2022/01/10 04:56:46;;;;;;;1.07;1.07;;;2.70;97.40;1.90;97958.00;;;;5114846;28;20246;-80
2022/01/10 04:59:13;;;;;;;1.10;1.00;;;2.70;97.40;1.90;97961.00;;;;5114838;28;20203;-80
2022/01/10 05:01:40;;;;;;;3.03;1.67;;;2.80;97.40;1.90;97966.00;;;;5096792;28;20300;-81
2022/01/10 05:04:10;;;;;;;1.10;1.10;;;2.80;97.30;1.90;97969.00;;;;5114791;28;20308;-80
2022/01/10 05:06:37;;;;;;;1.70;1.60;;;2.80;97.20;1.90;97970.00;;;;5114894;28;20206;-80
2022/01/10 05:09:04;;;;;;;1.10;1.10;;;2.80;96.90;1.90;97969.00;;;;5114703;28;20242;-80
2022/01/10 05:11:32;;;;;;;0.70;0.70;;;2.80;97.90;1.90;97981.00;;;;5096755;28;20295;-80
2022/01/10 05:14:02;;;;;;;1.60;1.57;;;2.80;97.20;1.90;97979.00;;;;5096832;28;20232;-81
2022/01/10 05:16:29;;;;;;;1.00;1.00;;;2.70;97.00;1.80;97992.00;;;;5114970;28;20249;-81
2022/01/10 05:18:55;;;;;;;1.43;1.33;;;2.80;97.30;1.90;97988.00;;;;5115186;28;20232;-81
2022/01/10 05:21:22;;;;;;;0.80;0.80;;;2.80;97.70;1.90;97982.00;;;;5114579;28;20207;-80
2022/01/10 05:23:51;;;;;;;0.80;0.80;;;2.80;97.60;1.90;97987.00;;;;5115159;28;20193;-79
2022/01/10 05:26:17;;;;;;;1.07;1.07;;;2.80;97.20;2.00;97997.00;;;;5115408;28;20625;-81
2022/01/10 05:28:44;;;;;;;1.20;1.20;;;2.80;97.60;2.00;97996.00;;;;5096702;28;20564;-80
2022/01/10 05:31:13;;;;;;;1.20;1.20;;;2.80;97.50;2.10;97995.00;;;;5097955;28;20205;-81
2022/01/10 05:33:42;;;;;;;1.47;1.37;;;2.90;97.50;2.00;98007.00;;;;5126309;28;20221;-80
2022/01/10 05:36:11;;;;;;;2.03;1.70;;;2.90;97.20;2.00;98022.00;;;;5117212;28;20285;-80
2022/01/10 05:38:38;;;;;;;1.23;1.20;;;2.80;97.00;2.00;98026.00;;;;5115410;28;20647;-80
2022/01/10 05:41:07;;;;;;;1.37;1.27;;;2.90;97.10;2.00;98023.00;;;;5114585;28;20651;-81
2022/01/10 05:43:34;;;;;;;1.00;1.00;;;2.80;97.00;2.00;98032.00;;;;5114363;28;20215;-80
2022/01/10 05:46:03;;;;;;;0.60;0.60;;;2.90;97.20;1.80;98028.00;;;;5114304;28;20291;-81
2022/01/10 05:48:31;;;;;;;1.57;1.40;;;2.80;97.00;2.00;98051.00;;;;5114230;28;20342;-80
2022/01/10 05:50:57;;;;;;;1.40;1.30;;;2.80;97.50;2.00;98046.00;;;;5114231;28;20528;-80
2022/01/10 05:53:24;;;;;;;1.00;1.00;;;2.90;97.50;2.00;98048.00;;;;5115163;28;20229;-81
2022/01/10 05:55:50;;;;;;;0.70;0.70;;;2.90;97.90;1.90;98053.00;;;;5117827;28;20209;-80
2022/01/10 05:58:17;;;;;;;1.20;1.20;;;2.80;96.90;2.00;98060.00;;;;5100443;28;20314;-80
2022/01/10 06:00:44;;;;;;;1.53;1.43;;;2.90;97.00;2.00;98073.00;;;;5117671;28;20201;-80
2022/01/10 06:03:11;;;;;;;0.97;0.97;;;2.90;97.10;2.00;98063.00;;;;5117619;28;20198;-80
2022/01/10 06:05:38;;;;;;;1.07;1.07;;;2.80;97.00;2.00;98071.00;;;;5117906;28;20204;-80
2022/01/10 06:08:07;;;;;;;3.20;1.37;;;2.90;97.30;2.10;98082.00;;;;5108677;28;20295;-80
2022/01/10 06:10:33;;;;;;;1.37;1.30;;;2.90;97.40;1.90;98085.00;;;;5129410;28;20211;-80
2022/01/10 06:13:01;;;;;;;0.90;0.90;;;2.90;97.10;1.90;98087.00;;;;5131348;28;20221;-80
2022/01/10 06:15:28;;;;;;;1.03;1.03;;;2.80;97.50;1.90;98095.00;;;;5120018;28;20675;-80
2022/01/10 06:17:55;;;;;;;1.10;1.03;;;3.00;97.90;2.10;98099.00;;;;5117651;28;20258;-80
2022/01/10 06:20:21;;;;;;;1.00;1.00;;;2.90;98.10;2.10;98119.00;;;;5117528;28;20216;-80
2022/01/10 06:22:49;;;;;;;1.27;1.27;;;2.90;98.00;2.10;98123.00;;;;5117484;28;20197;-81
2022/01/10 06:25:20;;;;;;;1.83;1.70;;;3.00;98.10;2.10;98125.00;;;;5117392;28;20211;-80
2022/01/10 06:27:47;;;;;;;1.67;1.47;;;3.00;98.10;2.10;98134.00;;;;5117255;28;20227;-81
2022/01/10 06:30:13;;;;;;;2.77;1.70;;;3.00;98.10;2.30;98141.00;;;;5117241;28;20205;-80
2022/01/10 06:32:42;;;;;;;0.87;0.87;;;3.10;98.40;2.30;98145.00;;;;5117034;28;20233;-79
2022/01/10 06:35:10;;;;;;;1.53;1.17;;;3.10;98.00;2.50;98149.00;;;;5117239;28;20196;-81
2022/01/10 06:37:36;;;;;;;1.37;1.27;;;3.30;97.50;2.50;98148.00;;;;5116936;28;20224;-80
2022/01/10 06:40:06;;;;;;;0.90;0.90;;;3.30;96.90;2.40;98157.00;;;;5099224;28;20294;-80
2022/01/10 06:42:35;;;;;;;2.07;1.97;;;3.30;96.80;2.40;98163.00;;;;5099038;28;20224;-81
2022/01/10 06:45:02;;;;;;;2.10;1.80;;;3.20;96.80;2.30;98169.00;;;;5117107;28;20215;-80
2022/01/10 06:47:30;;;;;;;1.70;1.60;;;3.20;96.80;2.30;98173.00;;;;5116949;28;20279;-79
2022/01/10 06:49:57;;;;;;;1.47;1.47;;;3.20;97.20;2.30;98167.00;;;;5116778;28;20283;-80
2022/01/10 06:52:23;;;;;;;1.30;1.20;;;3.20;97.40;2.20;98175.00;;;;5116838;28;20676;-81
2022/01/10 06:54:50;;;;;;;1.27;1.27;;;3.20;97.40;2.30;98181.00;;;;5116739;28;20227;-80
2022/01/10 06:57:17;;;;;;;2.77;2.37;;;3.20;97.70;2.40;98174.00;;;;5115836;28;20309;-80
2022/01/10 06:59:44;;;;;;;3.23;2.40;;;3.20;97.50;2.10;98159.00;;;;5116763;28;20636;-80
2022/01/10 07:02:10;;;;;;;1.27;1.27;;;3.10;97.00;2.10;98188.00;;;;5116791;28;20283;-80
2022/01/10 07:04:37;;;;;;;1.77;1.63;;;3.00;97.80;2.10;98201.00;;;;5098006;28;20201;-81
2022/01/10 07:07:05;;;;;;;2.07;1.97;;;3.00;97.50;2.10;98206.00;;;;5098843;28;20264;-81
2022/01/10 07:09:35;;;;;;;1.93;1.83;;;3.00;97.70;2.10;98216.00;;;;5116587;28;20201;-82
2022/01/10 07:12:03;;;;;;;1.13;1.13;;;2.90;98.20;2.20;98180.00;;;;5098488;28;20808;-80
2022/01/10 07:14:33;;;;;;;2.43;2.23;;;3.00;98.20;2.20;98221.00;;;;5116330;28;20307;-79
2022/01/10 07:17:00;;;;;;;2.80;2.10;;;3.10;98.20;2.30;98188.00;;;;5098634;28;20647;-82
2022/01/10 07:19:26;;;;;;;1.60;1.50;;;3.10;98.10;2.30;98237.00;;;;5116579;28;20265;-79
2022/01/10 07:21:54;;;;;;;2.63;2.03;;;3.10;97.70;2.30;98248.00;;;;5116149;28;20274;-80
2022/01/10 07:24:21;;;;;;;2.43;2.03;;;3.20;97.60;2.30;98258.00;;;;5116335;28;20681;-81
2022/01/10 07:26:47;;;;;;;1.87;1.77;;;3.20;97.80;2.40;98261.00;;;;5116240;28;20249;-81
2022/01/10 07:29:14;;;;;;;3.23;2.40;;;3.20;97.90;2.50;98270.00;;;;5116403;28;20271;-80
2022/01/10 07:31:42;;;;;;;1.63;1.57;;;3.30;98.10;2.60;98275.00;;;;5116356;28;20651;-85
2022/01/10 07:34:11;;;;;;;2.50;2.30;;;3.30;97.90;2.50;98279.00;;;;5116041;28;20340;-85
2022/01/10 07:36:37;;;;;;;1.40;1.37;;;3.30;97.20;2.50;98271.00;;;;5098197;28;20261;-87
2022/01/10 07:39:07;;;;;;;4.30;3.30;;;3.30;97.30;2.50;98284.00;;;;5116218;28;20297;-87
2022/01/10 07:41:33;;;;;;;1.77;1.67;;;3.30;97.50;2.60;98286.00;;;;5116227;28;20197;-87
2022/01/10 07:44:00;;;;;;;1.30;1.30;;;3.30;97.50;2.60;98291.00;;;;5098053;28;20695;-87
2022/01/10 07:46:29;;;;;;;1.90;1.80;;;3.40;97.20;2.60;98304.00;;;;5116068;28;20311;-86
2022/01/10 07:48:56;;;;;;;1.90;1.80;;;3.40;96.90;2.50;98293.00;;;;5116027;28;20273;-79
2022/01/10 07:51:24;;;;;;;1.07;1.07;;;3.40;96.90;2.50;98305.00;;;;5098149;28;20228;-78
2022/01/10 07:53:51;;;;;;;2.00;1.90;;;3.40;97.00;2.60;98303.00;;;;5115769;28;20245;-77
2022/01/10 07:56:18;;;;;;;2.13;1.93;;;3.40;97.20;2.60;98314.00;;;;5115945;28;20225;-78
2022/01/10 07:58:48;;;;;;;1.30;1.30;;;3.40;97.30;2.60;98316.00;;;;5115745;28;20224;-78
2022/01/10 08:01:19;;;;;;;3.00;1.70;;;3.40;97.20;2.60;98315.00;;;;5116412;28;20209;-77
2022/01/10 08:03:46;;;;;;;1.90;1.80;;;3.40;97.20;2.60;98321.00;;;;5115915;28;20193;-76
2022/01/10 08:06:13;;;;;;;1.60;1.53;;;3.50;97.30;2.60;98322.00;;;;5097796;28;20251;-77
2022/01/10 08:08:40;;;;;;;2.30;2.20;;;3.50;97.20;2.70;98332.00;;;;5116101;28;20616;-77
2022/01/10 08:11:09;;;;;;;1.40;1.33;;;3.50;97.20;2.60;98327.00;;;;5115640;28;20229;-79
2022/01/10 08:13:35;;;;;;;2.60;1.80;;;3.50;96.90;2.70;98342.00;;;;5115540;28;20277;-80
2022/01/10 08:16:02;;;;;;;2.27;2.17;;;3.50;97.00;2.70;98339.00;;;;5115708;28;20198;-78
2022/01/10 08:18:32;;;;;;;1.93;1.40;;;3.50;97.20;2.80;98343.00;;;;5115413;28;20218;-78
2022/01/10 08:20:59;;;;;;;3.87;2.60;;;;;2.80;98355.00;;;;5115458;28;20210;-77
2022/01/10 08:23:28;;;;;;;1.30;1.13;;;3.60;95.80;2.80;98358.00;;;;5115293;28;20724;-77
2022/01/10 08:25:55;;;;;;;2.23;2.03;;;3.60;96.50;2.80;98365.00;;;;5115423;28;20681;-78
2022/01/10 08:28:22;;;;;;;2.23;2.13;;;3.60;96.50;2.90;98372.00;;;;5115449;28;20201;-77
2022/01/10 08:30:49;;;;;;;1.80;1.70;;;3.70;96.50;2.90;98369.00;;;;5115316;28;20209;-78
2022/01/10 08:33:16;;;;;;;4.20;3.80;;;3.70;96.60;2.90;98371.00;;;;5115313;28;20305;-79
2022/01/10 08:35:42;;;;;;;4.60;2.60;;;3.70;96.30;2.90;98386.00;;;;5115284;28;20201;-78
2022/01/10 08:38:09;;;;;;;2.60;2.10;;;3.70;96.20;2.90;98380.00;;;;5115180;28;20190;-78
2022/01/10 08:40:38;;;;;;;1.77;1.67;;;3.70;96.40;2.90;98385.00;;;;5115238;28;20213;-78
2022/01/10 08:43:09;;;;;;;2.83;2.63;;;;;2.90;98399.00;;;;5115047;28;20627;-77
2022/01/10 08:45:36;;;;;;;3.60;2.60;;;3.70;95.70;2.80;98401.00;;;;5115152;28;20764;-78
2022/01/10 08:48:06;;;;;;;1.97;1.87;;;3.60;96.00;2.80;98393.00;;;;5114991;28;20517;-77
2022/01/10 08:50:34;;;;;;;2.33;1.87;;;3.60;96.00;2.80;98401.00;;;;5097027;28;20221;-80
2022/01/10 08:53:02;;;;;;;1.87;1.77;;;3.60;96.40;2.80;98400.00;;;;5114810;28;20296;-79
2022/01/10 08:55:29;;;;;;;2.60;2.40;;;3.60;96.50;2.80;98409.00;;;;5114807;28;20343;-77
2022/01/10 08:58:00;;;;;;;2.13;2.00;;;3.60;97.20;2.80;98409.00;;;;5096829;28;20322;-77
2022/01/10 09:00:27;;;;;;;2.13;2.03;;;3.60;96.70;2.80;98409.00;;;;5097074;28;20202;-77
2022/01/10 09:02:54;;;;;;;1.87;1.70;;;3.70;97.00;2.80;98425.00;;;;5114980;28;20277;-76
2022/01/10 09:05:21;;;;;;;1.30;1.20;;;3.70;96.80;2.80;98424.00;;;;5100404;28;20202;-76
2022/01/10 09:07:48;;;;;;;13.20;1.87;;;3.70;96.80;2.90;98429.00;;;;5115513;28;20312;-75
2022/01/10 09:10:15;;;;;;;1.93;1.83;;;3.70;96.80;2.80;98430.00;;;;5107577;28;20205;-76
2022/01/10 09:12:42;;;;;;;2.33;1.83;;;3.70;96.70;2.90;98429.00;;;;5127121;28;20221;-78
2022/01/10 09:15:10;;;;;;;1.93;1.70;;;3.70;97.00;3.00;98435.00;;;;5123237;28;20236;-75
2022/01/10 09:17:39;;;;;;;1.73;1.60;;;3.80;97.00;3.00;98432.00;;;;5117021;28;20202;-75
2022/01/10 09:20:07;;;;;;;1.87;1.77;;;3.80;96.90;3.10;98436.00;;;;5115023;28;20245;-78
2022/01/10 09:22:34;;;;;;;2.77;2.57;;;3.80;96.60;3.10;98443.00;;;;5115852;28;20327;-77
2022/01/10 09:25:01;;;;;;;2.13;2.03;;;3.90;96.50;3.20;98443.00;;;;5116715;28;20190;-75
2022/01/10 09:27:27;;;;;;;5.67;2.73;;;4.00;96.70;3.20;98448.00;;;;5114378;28;20308;-76
2022/01/10 09:29:54;;;;;;;2.03;1.77;;;4.00;96.60;3.30;98444.00;;;;5099885;28;20696;-75
2022/01/10 09:32:21;;;;;;;8.30;2.80;;;4.10;96.60;3.40;98450.00;;;;5115218;28;20280;-75
2022/01/10 09:34:48;;;;;;;1.43;1.43;;;4.10;96.10;3.30;98466.00;;;;5114488;28;20280;-76
2022/01/10 09:37:14;;;;;;;1.23;1.13;;;4.20;95.50;3.30;98477.00;;;;5096394;28;20629;-75
2022/01/10 09:39:41;;;;;;;1.27;1.27;;;4.10;94.80;3.40;98471.00;;;;5096451;28;20556;-75
2022/01/10 09:42:09;;;;;;;2.37;2.27;;;4.20;95.10;3.30;98477.00;;;;5114455;28;20289;-76
2022/01/10 09:44:36;;;;;;;2.53;2.37;;;4.10;94.40;3.30;98492.00;;;;5114263;28;20205;-76
2022/01/10 09:47:04;;;;;;;2.07;1.83;;;4.10;94.00;3.40;98480.00;;;;5114163;28;20194;-77
2022/01/10 09:49:31;;;;;;;1.17;1.17;;;4.20;94.10;3.40;98490.00;;;;5114173;28;20281;-75
2022/01/10 09:51:57;;;;;;;1.80;1.70;;;4.20;93.60;3.20;98492.00;;;;5114092;28;20229;-75
2022/01/10 09:54:24;;;;;;;2.33;1.97;;;4.10;93.10;3.20;98494.00;;;;5114132;28;20222;-76
2022/01/10 09:56:51;;;;;;;1.97;1.87;;;4.10;93.50;3.30;98499.00;;;;5096256;28;20274;-76
2022/01/10 09:59:19;;;;;;;1.33;1.33;;;4.10;93.80;3.20;98498.00;;;;5114047;28;20202;-74
2022/01/10 10:01:50;;;;;;;2.57;2.37;;;4.10;93.70;3.20;98506.00;;;;5114104;28;20198;-77
2022/01/10 10:04:17;;;;;;;2.63;2.43;;;4.10;93.90;3.30;98514.00;;;;5114044;28;20226;-75
2022/01/10 10:06:46;;;;;;;4.90;2.27;;;4.20;94.20;3.30;98506.00;;;;5113975;28;20277;-77
2022/01/10 10:09:16;;;;;;;1.23;1.23;;;4.20;93.90;3.40;98512.00;;;;5113938;28;20194;-77
2022/01/10 10:11:47;;;;;;;1.47;1.37;;;4.20;94.00;3.40;98512.00;;;;5113997;28;20298;-77
2022/01/10 10:14:18;;;;;;;0.93;0.93;;;4.20;93.80;3.40;98515.00;;;;5113884;28;20313;-75
2022/01/10 10:16:50;;;;;;;1.20;1.20;;;4.30;93.40;3.50;98522.00;;;;5095921;28;20316;-76
2022/01/10 10:19:20;;;;;;;0.83;0.83;;;4.30;93.40;3.60;98535.00;;;;5096053;28;20205;-78
2022/01/10 10:21:47;;;;;;;1.47;1.37;;;4.40;92.90;3.40;98530.00;;;;5113811;28;20198;-76
2022/01/10 10:24:14;;;;;;;3.17;2.23;;;4.30;92.20;3.40;98544.00;;;;5113634;28;20268;-78
2022/01/10 10:26:41;;;;;;;2.03;1.93;;;4.40;92.50;3.70;98535.00;;;;5112696;28;20563;-78
2022/01/10 10:29:13;;;;;;;3.20;2.20;;;4.40;92.30;3.80;98555.00;;;;5113623;28;20253;-78
2022/01/10 10:31:45;;;;;;;2.10;2.00;;;4.50;92.10;3.70;98539.00;;;;5113638;28;20663;-78
2022/01/10 10:34:19;;;;;;;0.93;0.93;;;4.50;90.60;3.80;98547.00;;;;5095748;28;20222;-77
2022/01/10 10:37:00;;;;;;;2.23;2.03;;;4.50;90.00;3.70;98543.00;;;;5113567;28;20256;-76
2022/01/10 10:39:28;;;;;;;1.20;1.20;;;4.50;89.70;3.90;98544.00;;;;5113640;28;20289;-77
2022/01/10 10:41:58;;;;;;;12.83;2.93;;;4.60;89.50;4.00;98546.00;;;;5116817;28;20226;-75
2022/01/10 10:44:25;;;;;;;1.97;1.87;;;4.70;90.00;4.10;98547.00;;;;5117047;28;20194;-77
2022/01/10 10:46:55;;;;;;;1.03;1.03;;;4.80;90.60;4.30;98543.00;;;;5117104;28;20201;-77
2022/01/10 10:49:30;;;;;;;1.93;1.80;;;4.90;89.90;4.30;98554.00;;;;5116953;28;20201;-77
2022/01/10 10:52:00;;;;;;;2.50;1.83;;;5.10;89.40;4.60;98554.00;;;;5116887;28;20586;-77
2022/01/10 10:54:31;;;;;;;1.43;1.43;;;5.20;87.50;4.60;98552.00;;;;5098907;28;20229;-76
2022/01/10 10:56:59;;;;;;;2.43;2.13;;;5.30;86.50;4.70;98546.00;;;;5116982;28;20215;-77
2022/01/10 10:59:29;;;;;;;1.50;1.47;;;5.40;85.30;4.60;98538.00;;;;5116782;28;20198;-77
2022/01/10 11:01:57;;;;;;;1.50;1.40;;;5.30;85.60;4.80;98558.00;;;;5116914;28;20626;-78
2022/01/10 11:04:24;;;;;;;3.70;1.73;;;5.50;85.10;4.60;98560.00;;;;5116753;28;20197;-77
2022/01/10 11:06:52;;;;;;;2.30;1.97;;;5.40;84.80;4.70;98524.00;;;;5116660;28;20251;-76
2022/01/10 11:09:21;;;;;;;1.43;1.20;;;5.40;84.80;5.00;98570.00;;;;5116718;28;20218;-75
2022/01/10 11:11:49;;;;;;;3.60;1.60;;;5.60;84.00;4.80;98564.00;;;;5116554;28;20570;-78
2022/01/10 11:14:22;;;;;;;0.93;0.93;;;5.50;81.30;5.00;98566.00;;;;5116383;28;20325;-76
2022/01/10 11:16:52;;;;;;;2.77;2.53;;;5.60;82.40;5.30;98578.00;;;;5098687;28;20210;-80